sensor_id;sensor_type;location;lat;lon;timestamp;P1;durP1;ratioP1;P2;durP2;ratioP2
6693;SDS011;3384;42.628;23.380;2023-08-01T00:00:29;6.40;;;6.30;;
6693;SDS011;3384;42.628;23.380;2023-08-01T00:02:55;7.20;;;6.73;;
6693;SDS011;3384;42.628;23.380;2023-08-01T00:05:23;7.67;;;7.30;;
6693;SDS011;3384;42.628;23.380;2023-08-01T00:07:49;7.40;;;7.20;;
6693;SDS011;3384;42.628;23.380;2023-08-01T00:10:16;7.60;;;7.40;;
6693;SDS011;3384;42.628;23.380;2023-08-01T00:12:43;7.30;;;7.00;;
6693;SDS011;3384;42.628;23.380;2023-08-01T00:15:11;6.60;;;6.50;;
6693;SDS011;3384;42.628;23.380;2023-08-01T00:17:38;6.20;;;6.10;;
6693;SDS011;3384;42.628;23.380;2023-08-01T00:20:06;7.50;;;7.00;;
6693;SDS011;3384;42.628;23.380;2023-08-01T00:22:33;6.67;;;6.57;;
6693;SDS011;3384;42.628;23.380;2023-08-01T00:25:00;10.50;;;7.00;;
6693;SDS011;3384;42.628;23.380;2023-08-01T00:27:27;7.27;;;7.10;;
6693;SDS011;3384;42.628;23.380;2023-08-01T00:29:54;6.30;;;6.20;;
6693;SDS011;3384;42.628;23.380;2023-08-01T00:32:22;6.80;;;6.50;;
6693;SDS011;3384;42.628;23.380;2023-08-01T00:34:50;6.70;;;6.60;;
6693;SDS011;3384;42.628;23.380;2023-08-01T00:37:17;6.10;;;6.00;;
6693;SDS011;3384;42.628;23.380;2023-08-01T00:39:43;6.20;;;5.97;;
6693;SDS011;3384;42.628;23.380;2023-08-01T00:42:10;6.90;;;6.70;;
6693;SDS011;3384;42.628;23.380;2023-08-01T00:44:37;6.10;;;5.90;;
6693;SDS011;3384;42.628;23.380;2023-08-01T00:47:04;6.33;;;6.20;;
6693;SDS011;3384;42.628;23.380;2023-08-01T00:49:32;6.30;;;6.20;;
6693;SDS011;3384;42.628;23.380;2023-08-01T00:51:59;6.40;;;6.20;;
6693;SDS011;3384;42.628;23.380;2023-08-01T00:54:26;5.87;;;5.67;;
6693;SDS011;3384;42.628;23.380;2023-08-01T00:56:55;6.10;;;5.90;;
6693;SDS011;3384;42.628;23.380;2023-08-01T00:59:22;5.53;;;5.43;;
6693;SDS011;3384;42.628;23.380;2023-08-01T01:01:49;6.00;;;5.70;;
6693;SDS011;3384;42.628;23.380;2023-08-01T01:04:16;5.80;;;5.40;;
6693;SDS011;3384;42.628;23.380;2023-08-01T01:06:45;6.33;;;6.23;;
6693;SDS011;3384;42.628;23.380;2023-08-01T01:09:15;5.63;;;5.53;;
6693;SDS011;3384;42.628;23.380;2023-08-01T01:11:43;6.50;;;6.33;;
6693;SDS011;3384;42.628;23.380;2023-08-01T01:14:10;6.50;;;6.40;;
6693;SDS011;3384;42.628;23.380;2023-08-01T01:16:36;7.17;;;7.07;;
6693;SDS011;3384;42.628;23.380;2023-08-01T01:19:05;6.87;;;6.60;;
6693;SDS011;3384;42.628;23.380;2023-08-01T01:21:35;6.67;;;6.40;;
6693;SDS011;3384;42.628;23.380;2023-08-01T01:24:04;8.03;;;6.80;;
6693;SDS011;3384;42.628;23.380;2023-08-01T01:26:32;6.93;;;6.67;;
6693;SDS011;3384;42.628;23.380;2023-08-01T01:28:59;6.90;;;6.73;;
6693;SDS011;3384;42.628;23.380;2023-08-01T01:31:28;6.80;;;6.70;;
6693;SDS011;3384;42.628;23.380;2023-08-01T01:33:55;6.80;;;6.60;;
6693;SDS011;3384;42.628;23.380;2023-08-01T01:36:22;6.30;;;6.20;;
6693;SDS011;3384;42.628;23.380;2023-08-01T01:38:50;6.70;;;6.40;;
6693;SDS011;3384;42.628;23.380;2023-08-01T01:41:17;7.37;;;7.17;;
6693;SDS011;3384;42.628;23.380;2023-08-01T01:43:44;6.97;;;6.80;;
6693;SDS011;3384;42.628;23.380;2023-08-01T01:46:10;7.20;;;7.00;;
6693;SDS011;3384;42.628;23.380;2023-08-01T01:48:37;7.20;;;7.00;;
6693;SDS011;3384;42.628;23.380;2023-08-01T01:51:04;8.70;;;8.60;;
6693;SDS011;3384;42.628;23.380;2023-08-01T01:53:31;8.13;;;7.53;;
6693;SDS011;3384;42.628;23.380;2023-08-01T01:55:59;8.80;;;8.00;;
6693;SDS011;3384;42.628;23.380;2023-08-01T01:58:25;8.40;;;8.20;;
6693;SDS011;3384;42.628;23.380;2023-08-01T02:00:52;7.23;;;7.03;;
6693;SDS011;3384;42.628;23.380;2023-08-01T02:03:19;8.67;;;8.50;;
6693;SDS011;3384;42.628;23.380;2023-08-01T02:05:46;7.83;;;7.60;;
6693;SDS011;3384;42.628;23.380;2023-08-01T02:08:13;8.03;;;7.93;;
6693;SDS011;3384;42.628;23.380;2023-08-01T02:10:40;9.17;;;8.73;;
6693;SDS011;3384;42.628;23.380;2023-08-01T02:13:08;7.90;;;7.80;;
6693;SDS011;3384;42.628;23.380;2023-08-01T02:15:36;8.67;;;8.47;;
6693;SDS011;3384;42.628;23.380;2023-08-01T02:18:02;8.93;;;8.83;;
6693;SDS011;3384;42.628;23.380;2023-08-01T02:20:29;8.20;;;8.00;;
6693;SDS011;3384;42.628;23.380;2023-08-01T02:22:56;9.17;;;8.77;;
6693;SDS011;3384;42.628;23.380;2023-08-01T02:25:23;8.60;;;8.40;;
6693;SDS011;3384;42.628;23.380;2023-08-01T02:27:50;9.57;;;9.17;;
6693;SDS011;3384;42.628;23.380;2023-08-01T02:30:18;8.83;;;8.60;;
6693;SDS011;3384;42.628;23.380;2023-08-01T02:32:45;8.17;;;7.97;;
6693;SDS011;3384;42.628;23.380;2023-08-01T02:35:12;8.10;;;7.70;;
6693;SDS011;3384;42.628;23.380;2023-08-01T02:37:39;8.13;;;8.03;;
6693;SDS011;3384;42.628;23.380;2023-08-01T02:40:07;7.87;;;7.67;;
6693;SDS011;3384;42.628;23.380;2023-08-01T02:42:35;8.00;;;7.90;;
6693;SDS011;3384;42.628;23.380;2023-08-01T02:45:02;8.03;;;7.93;;
6693;SDS011;3384;42.628;23.380;2023-08-01T02:47:31;7.67;;;7.50;;
6693;SDS011;3384;42.628;23.380;2023-08-01T02:49:57;8.13;;;7.93;;
6693;SDS011;3384;42.628;23.380;2023-08-01T02:52:24;8.40;;;8.10;;
6693;SDS011;3384;42.628;23.380;2023-08-01T02:54:51;7.47;;;7.27;;
6693;SDS011;3384;42.628;23.380;2023-08-01T02:57:17;7.33;;;7.13;;
6693;SDS011;3384;42.628;23.380;2023-08-01T02:59:44;7.83;;;7.43;;
6693;SDS011;3384;42.628;23.380;2023-08-01T03:02:11;7.83;;;7.30;;
6693;SDS011;3384;42.628;23.380;2023-08-01T03:04:39;9.40;;;8.97;;
6693;SDS011;3384;42.628;23.380;2023-08-01T03:07:06;8.30;;;8.10;;
6693;SDS011;3384;42.628;23.380;2023-08-01T03:09:33;8.30;;;8.00;;
6693;SDS011;3384;42.628;23.380;2023-08-01T03:12:00;9.13;;;8.57;;
6693;SDS011;3384;42.628;23.380;2023-08-01T03:14:26;8.23;;;8.00;;
6693;SDS011;3384;42.628;23.380;2023-08-01T03:16:53;7.57;;;7.37;;
6693;SDS011;3384;42.628;23.380;2023-08-01T03:19:20;7.50;;;7.30;;
6693;SDS011;3384;42.628;23.380;2023-08-01T03:21:48;8.20;;;7.60;;
6693;SDS011;3384;42.628;23.380;2023-08-01T03:24:15;9.00;;;8.60;;
6693;SDS011;3384;42.628;23.380;2023-08-01T03:26:41;9.10;;;8.80;;
6693;SDS011;3384;42.628;23.380;2023-08-01T03:29:08;8.93;;;8.83;;
6693;SDS011;3384;42.628;23.380;2023-08-01T03:31:35;15.07;;;9.53;;
6693;SDS011;3384;42.628;23.380;2023-08-01T03:34:02;8.97;;;8.50;;
6693;SDS011;3384;42.628;23.380;2023-08-01T03:36:29;10.10;;;9.60;;
6693;SDS011;3384;42.628;23.380;2023-08-01T03:38:57;9.83;;;9.50;;
6693;SDS011;3384;42.628;23.380;2023-08-01T03:41:24;10.23;;;9.77;;
6693;SDS011;3384;42.628;23.380;2023-08-01T03:43:51;9.87;;;9.47;;
6693;SDS011;3384;42.628;23.380;2023-08-01T03:46:17;10.80;;;10.30;;
6693;SDS011;3384;42.628;23.380;2023-08-01T03:48:45;14.43;;;9.90;;
6693;SDS011;3384;42.628;23.380;2023-08-01T03:51:12;9.03;;;8.83;;
6693;SDS011;3384;42.628;23.380;2023-08-01T03:53:40;9.07;;;8.87;;
6693;SDS011;3384;42.628;23.380;2023-08-01T03:56:08;9.07;;;8.77;;
6693;SDS011;3384;42.628;23.380;2023-08-01T03:58:35;8.37;;;8.13;;
6693;SDS011;3384;42.628;23.380;2023-08-01T04:01:02;7.33;;;7.10;;
6693;SDS011;3384;42.628;23.380;2023-08-01T04:03:31;7.50;;;7.20;;
6693;SDS011;3384;42.628;23.380;2023-08-01T04:05:58;6.70;;;6.50;;
6693;SDS011;3384;42.628;23.380;2023-08-01T04:08:25;7.30;;;6.87;;
6693;SDS011;3384;42.628;23.380;2023-08-01T04:10:51;8.10;;;7.80;;
6693;SDS011;3384;42.628;23.380;2023-08-01T04:13:20;8.03;;;7.37;;
6693;SDS011;3384;42.628;23.380;2023-08-01T04:15:46;6.70;;;6.20;;
6693;SDS011;3384;42.628;23.380;2023-08-01T04:18:14;6.07;;;5.87;;
6693;SDS011;3384;42.628;23.380;2023-08-01T04:20:41;7.63;;;6.70;;
6693;SDS011;3384;42.628;23.380;2023-08-01T04:23:07;11.37;;;7.20;;
6693;SDS011;3384;42.628;23.380;2023-08-01T04:25:34;7.73;;;7.13;;
6693;SDS011;3384;42.628;23.380;2023-08-01T04:28:01;6.67;;;6.20;;
6693;SDS011;3384;42.628;23.380;2023-08-01T04:30:29;8.23;;;6.70;;
6693;SDS011;3384;42.628;23.380;2023-08-01T04:32:58;6.30;;;5.83;;
6693;SDS011;3384;42.628;23.380;2023-08-01T04:35:25;6.40;;;6.20;;
6693;SDS011;3384;42.628;23.380;2023-08-01T04:37:51;6.17;;;5.97;;
6693;SDS011;3384;42.628;23.380;2023-08-01T04:40:18;16.10;;;6.97;;
6693;SDS011;3384;42.628;23.380;2023-08-01T04:42:45;8.23;;;7.57;;
6693;SDS011;3384;42.628;23.380;2023-08-01T04:45:12;5.77;;;5.67;;
6693;SDS011;3384;42.628;23.380;2023-08-01T04:47:40;5.77;;;5.10;;
6693;SDS011;3384;42.628;23.380;2023-08-01T04:50:07;9.80;;;7.10;;
6693;SDS011;3384;42.628;23.380;2023-08-01T04:52:34;6.10;;;5.90;;
6693;SDS011;3384;42.628;23.380;2023-08-01T04:55:01;5.40;;;5.20;;
6693;SDS011;3384;42.628;23.380;2023-08-01T04:57:28;6.30;;;5.67;;
6693;SDS011;3384;42.628;23.380;2023-08-01T04:59:55;5.70;;;5.50;;
6693;SDS011;3384;42.628;23.380;2023-08-01T05:02:22;7.47;;;7.17;;
6693;SDS011;3384;42.628;23.380;2023-08-01T05:04:50;7.00;;;6.80;;
6693;SDS011;3384;42.628;23.380;2023-08-01T05:07:17;7.73;;;7.27;;
6693;SDS011;3384;42.628;23.380;2023-08-01T05:09:44;7.57;;;7.17;;
6693;SDS011;3384;42.628;23.380;2023-08-01T05:12:11;6.97;;;6.67;;
6693;SDS011;3384;42.628;23.380;2023-08-01T05:14:37;7.10;;;6.80;;
6693;SDS011;3384;42.628;23.380;2023-08-01T05:17:04;7.10;;;6.50;;
6693;SDS011;3384;42.628;23.380;2023-08-01T05:19:31;7.97;;;7.50;;
6693;SDS011;3384;42.628;23.380;2023-08-01T05:21:59;9.00;;;8.50;;
6693;SDS011;3384;42.628;23.380;2023-08-01T05:24:26;9.30;;;8.87;;
6693;SDS011;3384;42.628;23.380;2023-08-01T05:26:53;8.07;;;7.77;;
6693;SDS011;3384;42.628;23.380;2023-08-01T05:29:20;8.60;;;7.70;;
6693;SDS011;3384;42.628;23.380;2023-08-01T05:31:46;9.60;;;9.10;;
6693;SDS011;3384;42.628;23.380;2023-08-01T05:34:13;8.67;;;8.47;;
6693;SDS011;3384;42.628;23.380;2023-08-01T05:36:40;10.10;;;9.30;;
6693;SDS011;3384;42.628;23.380;2023-08-01T05:39:08;9.50;;;9.10;;
6693;SDS011;3384;42.628;23.380;2023-08-01T05:41:35;10.50;;;9.70;;
6693;SDS011;3384;42.628;23.380;2023-08-01T05:44:03;10.30;;;9.67;;
6693;SDS011;3384;42.628;23.380;2023-08-01T05:46:30;10.97;;;10.67;;
6693;SDS011;3384;42.628;23.380;2023-08-01T05:48:57;9.87;;;9.37;;
6693;SDS011;3384;42.628;23.380;2023-08-01T05:51:24;11.27;;;10.63;;
6693;SDS011;3384;42.628;23.380;2023-08-01T05:53:50;11.00;;;10.23;;
6693;SDS011;3384;42.628;23.380;2023-08-01T05:56:19;10.13;;;9.80;;
6693;SDS011;3384;42.628;23.380;2023-08-01T05:58:45;13.23;;;12.53;;
6693;SDS011;3384;42.628;23.380;2023-08-01T06:01:12;12.63;;;11.57;;
6693;SDS011;3384;42.628;23.380;2023-08-01T06:03:40;12.00;;;11.43;;
6693;SDS011;3384;42.628;23.380;2023-08-01T06:06:06;10.50;;;9.90;;
6693;SDS011;3384;42.628;23.380;2023-08-01T06:08:33;11.10;;;10.50;;
6693;SDS011;3384;42.628;23.380;2023-08-01T06:11:00;11.70;;;10.77;;
6693;SDS011;3384;42.628;23.380;2023-08-01T06:13:28;10.10;;;9.70;;
6693;SDS011;3384;42.628;23.380;2023-08-01T06:15:55;12.20;;;10.10;;
6693;SDS011;3384;42.628;23.380;2023-08-01T06:18:21;11.53;;;10.70;;
6693;SDS011;3384;42.628;23.380;2023-08-01T06:20:48;11.13;;;10.20;;
6693;SDS011;3384;42.628;23.380;2023-08-01T06:23:15;11.13;;;10.43;;
6693;SDS011;3384;42.628;23.380;2023-08-01T06:25:42;10.43;;;10.20;;
6693;SDS011;3384;42.628;23.380;2023-08-01T06:28:09;11.47;;;11.07;;
6693;SDS011;3384;42.628;23.380;2023-08-01T06:30:37;12.33;;;11.60;;
6693;SDS011;3384;42.628;23.380;2023-08-01T06:33:04;11.40;;;10.50;;
6693;SDS011;3384;42.628;23.380;2023-08-01T06:35:31;11.80;;;11.40;;
6693;SDS011;3384;42.628;23.380;2023-08-01T06:37:58;11.30;;;10.80;;
6693;SDS011;3384;42.628;23.380;2023-08-01T06:40:25;10.63;;;10.17;;
6693;SDS011;3384;42.628;23.380;2023-08-01T06:42:51;12.07;;;11.47;;
6693;SDS011;3384;42.628;23.380;2023-08-01T06:45:18;11.80;;;11.40;;
6693;SDS011;3384;42.628;23.380;2023-08-01T06:47:46;12.57;;;12.07;;
6693;SDS011;3384;42.628;23.380;2023-08-01T06:50:13;13.73;;;12.70;;
6693;SDS011;3384;42.628;23.380;2023-08-01T06:52:40;12.03;;;11.67;;
6693;SDS011;3384;42.628;23.380;2023-08-01T06:55:07;13.13;;;12.53;;
6693;SDS011;3384;42.628;23.380;2023-08-01T06:57:34;13.73;;;12.50;;
6693;SDS011;3384;42.628;23.380;2023-08-01T07:00:01;11.60;;;11.10;;
6693;SDS011;3384;42.628;23.380;2023-08-01T07:02:29;11.67;;;11.27;;
6693;SDS011;3384;42.628;23.380;2023-08-01T07:04:57;14.20;;;13.50;;
6693;SDS011;3384;42.628;23.380;2023-08-01T07:07:24;13.43;;;12.63;;
6693;SDS011;3384;42.628;23.380;2023-08-01T07:09:50;13.60;;;13.10;;
6693;SDS011;3384;42.628;23.380;2023-08-01T07:12:17;12.57;;;12.07;;
6693;SDS011;3384;42.628;23.380;2023-08-01T07:14:44;12.70;;;12.20;;
6693;SDS011;3384;42.628;23.380;2023-08-01T07:17:11;12.93;;;12.40;;
6693;SDS011;3384;42.628;23.380;2023-08-01T07:19:38;12.73;;;12.20;;
6693;SDS011;3384;42.628;23.380;2023-08-01T07:22:06;14.47;;;13.77;;
6693;SDS011;3384;42.628;23.380;2023-08-01T07:24:33;12.80;;;12.33;;
6693;SDS011;3384;42.628;23.380;2023-08-01T07:26:59;14.67;;;13.47;;
6693;SDS011;3384;42.628;23.380;2023-08-01T07:29:26;13.93;;;13.20;;
6693;SDS011;3384;42.628;23.380;2023-08-01T07:31:53;14.73;;;13.73;;
6693;SDS011;3384;42.628;23.380;2023-08-01T07:34:20;14.90;;;13.80;;
6693;SDS011;3384;42.628;23.380;2023-08-01T07:36:47;14.60;;;13.70;;
6693;SDS011;3384;42.628;23.380;2023-08-01T07:39:16;14.27;;;13.40;;
6693;SDS011;3384;42.628;23.380;2023-08-01T07:41:43;15.40;;;14.07;;
6693;SDS011;3384;42.628;23.380;2023-08-01T07:44:10;14.97;;;13.90;;
6693;SDS011;3384;42.628;23.380;2023-08-01T07:46:36;14.97;;;14.30;;
6693;SDS011;3384;42.628;23.380;2023-08-01T07:49:03;14.77;;;13.80;;
6693;SDS011;3384;42.628;23.380;2023-08-01T07:51:30;33.80;;;14.03;;
6693;SDS011;3384;42.628;23.380;2023-08-01T07:53:58;13.87;;;12.93;;
6693;SDS011;3384;42.628;23.380;2023-08-01T07:56:27;13.90;;;13.10;;
6693;SDS011;3384;42.628;23.380;2023-08-01T07:58:54;12.40;;;11.80;;
6693;SDS011;3384;42.628;23.380;2023-08-01T08:01:20;13.60;;;12.60;;
6693;SDS011;3384;42.628;23.380;2023-08-01T08:03:47;13.93;;;12.77;;
6693;SDS011;3384;42.628;23.380;2023-08-01T08:06:14;14.43;;;13.20;;
6693;SDS011;3384;42.628;23.380;2023-08-01T08:08:41;15.00;;;14.10;;
6693;SDS011;3384;42.628;23.380;2023-08-01T08:11:08;13.77;;;13.17;;
6693;SDS011;3384;42.628;23.380;2023-08-01T08:13:35;18.57;;;13.70;;
6693;SDS011;3384;42.628;23.380;2023-08-01T08:16:02;14.80;;;14.00;;
6693;SDS011;3384;42.628;23.380;2023-08-01T08:18:29;15.50;;;14.47;;
6693;SDS011;3384;42.628;23.380;2023-08-01T08:20:56;13.73;;;13.10;;
6693;SDS011;3384;42.628;23.380;2023-08-01T08:23:23;17.07;;;16.07;;
6693;SDS011;3384;42.628;23.380;2023-08-01T08:25:50;15.73;;;14.67;;
6693;SDS011;3384;42.628;23.380;2023-08-01T08:28:26;15.53;;;14.67;;
6693;SDS011;3384;42.628;23.380;2023-08-01T08:30:56;15.27;;;14.20;;
6693;SDS011;3384;42.628;23.380;2023-08-01T08:33:23;15.07;;;13.67;;
6693;SDS011;3384;42.628;23.380;2023-08-01T08:35:49;15.03;;;14.37;;
6693;SDS011;3384;42.628;23.380;2023-08-01T08:38:16;15.20;;;14.30;;
6693;SDS011;3384;42.628;23.380;2023-08-01T08:40:52;15.57;;;14.90;;
6693;SDS011;3384;42.628;23.380;2023-08-01T08:43:26;16.10;;;15.20;;
6693;SDS011;3384;42.628;23.380;2023-08-01T08:45:56;16.23;;;15.10;;
6693;SDS011;3384;42.628;23.380;2023-08-01T08:48:26;16.13;;;14.50;;
6693;SDS011;3384;42.628;23.380;2023-08-01T08:50:54;14.80;;;13.73;;
6693;SDS011;3384;42.628;23.380;2023-08-01T08:53:24;14.20;;;13.57;;
6693;SDS011;3384;42.628;23.380;2023-08-01T08:55:51;14.27;;;13.77;;
6693;SDS011;3384;42.628;23.380;2023-08-01T08:58:18;14.37;;;13.37;;
6693;SDS011;3384;42.628;23.380;2023-08-01T09:00:46;13.67;;;12.50;;
6693;SDS011;3384;42.628;23.380;2023-08-01T09:03:15;13.60;;;13.10;;
6693;SDS011;3384;42.628;23.380;2023-08-01T09:05:44;13.67;;;12.93;;
6693;SDS011;3384;42.628;23.380;2023-08-01T09:08:15;14.37;;;13.60;;
6693;SDS011;3384;42.628;23.380;2023-08-01T09:10:44;15.60;;;14.90;;
6693;SDS011;3384;42.628;23.380;2023-08-01T09:13:11;13.97;;;13.43;;
6693;SDS011;3384;42.628;23.380;2023-08-01T09:15:38;15.33;;;14.37;;
6693;SDS011;3384;42.628;23.380;2023-08-01T09:18:07;22.13;;;14.63;;
6693;SDS011;3384;42.628;23.380;2023-08-01T09:20:42;13.67;;;13.27;;
6693;SDS011;3384;42.628;23.380;2023-08-01T09:23:10;15.20;;;14.40;;
6693;SDS011;3384;42.628;23.380;2023-08-01T09:25:37;15.13;;;14.00;;
6693;SDS011;3384;42.628;23.380;2023-08-01T09:28:14;15.60;;;14.80;;
6693;SDS011;3384;42.628;23.380;2023-08-01T09:30:50;14.20;;;13.27;;
6693;SDS011;3384;42.628;23.380;2023-08-01T09:33:19;17.30;;;15.57;;
6693;SDS011;3384;42.628;23.380;2023-08-01T09:35:48;15.50;;;14.50;;
6693;SDS011;3384;42.628;23.380;2023-08-01T09:38:16;15.20;;;14.40;;
6693;SDS011;3384;42.628;23.380;2023-08-01T09:40:43;16.57;;;15.17;;
6693;SDS011;3384;42.628;23.380;2023-08-01T09:43:11;17.70;;;16.90;;
6693;SDS011;3384;42.628;23.380;2023-08-01T09:45:49;15.97;;;15.40;;
6693;SDS011;3384;42.628;23.380;2023-08-01T09:48:21;15.77;;;14.83;;
6693;SDS011;3384;42.628;23.380;2023-08-01T09:51:02;17.07;;;15.57;;
6693;SDS011;3384;42.628;23.380;2023-08-01T09:53:31;16.70;;;15.80;;
6693;SDS011;3384;42.628;23.380;2023-08-01T09:55:57;16.57;;;15.90;;
6693;SDS011;3384;42.628;23.380;2023-08-01T09:58:26;17.27;;;16.23;;
6693;SDS011;3384;42.628;23.380;2023-08-01T10:00:57;16.87;;;15.80;;
6693;SDS011;3384;42.628;23.380;2023-08-01T10:03:25;15.10;;;14.50;;
6693;SDS011;3384;42.628;23.380;2023-08-01T10:05:55;13.73;;;13.10;;
6693;SDS011;3384;42.628;23.380;2023-08-01T10:08:22;16.30;;;15.10;;
6693;SDS011;3384;42.628;23.380;2023-08-01T10:10:49;16.23;;;15.30;;
6693;SDS011;3384;42.628;23.380;2023-08-01T10:13:18;17.17;;;15.70;;
6693;SDS011;3384;42.628;23.380;2023-08-01T10:15:49;15.17;;;14.43;;
6693;SDS011;3384;42.628;23.380;2023-08-01T10:18:16;14.57;;;14.10;;
6693;SDS011;3384;42.628;23.380;2023-08-01T10:20:44;16.20;;;15.47;;
6693;SDS011;3384;42.628;23.380;2023-08-01T10:23:12;15.77;;;15.03;;
6693;SDS011;3384;42.628;23.380;2023-08-01T10:25:40;16.90;;;15.80;;
6693;SDS011;3384;42.628;23.380;2023-08-01T10:28:07;16.37;;;15.13;;
6693;SDS011;3384;42.628;23.380;2023-08-01T10:30:34;15.60;;;14.83;;
6693;SDS011;3384;42.628;23.380;2023-08-01T10:33:01;15.43;;;14.50;;
6693;SDS011;3384;42.628;23.380;2023-08-01T10:35:31;15.13;;;14.37;;
6693;SDS011;3384;42.628;23.380;2023-08-01T10:38:03;16.10;;;14.90;;
6693;SDS011;3384;42.628;23.380;2023-08-01T10:40:36;16.97;;;15.60;;
6693;SDS011;3384;42.628;23.380;2023-08-01T10:43:04;15.50;;;14.60;;
6693;SDS011;3384;42.628;23.380;2023-08-01T10:45:31;16.67;;;15.40;;
6693;SDS011;3384;42.628;23.380;2023-08-01T10:48:07;15.10;;;14.20;;
6693;SDS011;3384;42.628;23.380;2023-08-01T10:50:35;17.93;;;13.80;;
6693;SDS011;3384;42.628;23.380;2023-08-01T10:53:03;15.90;;;15.23;;
6693;SDS011;3384;42.628;23.380;2023-08-01T10:55:42;15.40;;;14.70;;
6693;SDS011;3384;42.628;23.380;2023-08-01T10:58:10;15.40;;;14.80;;
6693;SDS011;3384;42.628;23.380;2023-08-01T11:00:37;15.53;;;14.37;;
6693;SDS011;3384;42.628;23.380;2023-08-01T11:03:04;16.10;;;15.27;;
6693;SDS011;3384;42.628;23.380;2023-08-01T11:05:31;16.97;;;15.43;;
6693;SDS011;3384;42.628;23.380;2023-08-01T11:07:58;14.93;;;14.13;;
6693;SDS011;3384;42.628;23.380;2023-08-01T11:10:26;14.73;;;14.03;;
6693;SDS011;3384;42.628;23.380;2023-08-01T11:12:55;16.03;;;14.67;;
6693;SDS011;3384;42.628;23.380;2023-08-01T11:15:22;13.60;;;13.10;;
6693;SDS011;3384;42.628;23.380;2023-08-01T11:17:50;16.57;;;15.70;;
6693;SDS011;3384;42.628;23.380;2023-08-01T11:20:20;24.47;;;15.23;;
6693;SDS011;3384;42.628;23.380;2023-08-01T11:22:52;17.17;;;16.37;;
6693;SDS011;3384;42.628;23.380;2023-08-01T11:25:30;17.53;;;16.73;;
6693;SDS011;3384;42.628;23.380;2023-08-01T11:28:02;16.47;;;15.67;;
6693;SDS011;3384;42.628;23.380;2023-08-01T11:30:30;16.30;;;15.70;;
6693;SDS011;3384;42.628;23.380;2023-08-01T11:32:58;17.20;;;16.10;;
6693;SDS011;3384;42.628;23.380;2023-08-01T11:35:25;17.43;;;16.20;;
6693;SDS011;3384;42.628;23.380;2023-08-01T11:37:52;17.13;;;16.33;;
6693;SDS011;3384;42.628;23.380;2023-08-01T11:40:19;17.30;;;16.43;;
6693;SDS011;3384;42.628;23.380;2023-08-01T11:42:48;18.20;;;17.00;;
6693;SDS011;3384;42.628;23.380;2023-08-01T11:45:17;17.40;;;16.70;;
6693;SDS011;3384;42.628;23.380;2023-08-01T11:47:45;16.13;;;14.80;;
6693;SDS011;3384;42.628;23.380;2023-08-01T11:50:12;16.57;;;15.17;;
6693;SDS011;3384;42.628;23.380;2023-08-01T11:52:39;17.30;;;16.33;;
6693;SDS011;3384;42.628;23.380;2023-08-01T11:55:06;16.40;;;15.30;;
6693;SDS011;3384;42.628;23.380;2023-08-01T11:57:34;16.43;;;15.40;;
6693;SDS011;3384;42.628;23.380;2023-08-01T12:00:00;18.87;;;15.60;;
6693;SDS011;3384;42.628;23.380;2023-08-01T12:02:30;19.73;;;18.70;;
6693;SDS011;3384;42.628;23.380;2023-08-01T12:04:56;16.13;;;14.80;;
6693;SDS011;3384;42.628;23.380;2023-08-01T12:07:24;16.17;;;15.47;;
6693;SDS011;3384;42.628;23.380;2023-08-01T12:09:56;17.57;;;16.63;;
6693;SDS011;3384;42.628;23.380;2023-08-01T12:12:23;18.83;;;17.80;;
6693;SDS011;3384;42.628;23.380;2023-08-01T12:14:52;17.23;;;16.43;;
6693;SDS011;3384;42.628;23.380;2023-08-01T12:17:19;17.60;;;16.70;;
6693;SDS011;3384;42.628;23.380;2023-08-01T12:19:47;18.53;;;17.20;;
6693;SDS011;3384;42.628;23.380;2023-08-01T12:22:14;16.07;;;15.50;;
6693;SDS011;3384;42.628;23.380;2023-08-01T12:24:41;18.33;;;17.10;;
6693;SDS011;3384;42.628;23.380;2023-08-01T12:27:08;17.23;;;16.43;;
6693;SDS011;3384;42.628;23.380;2023-08-01T12:29:34;17.17;;;16.03;;
6693;SDS011;3384;42.628;23.380;2023-08-01T12:32:01;18.37;;;16.90;;
6693;SDS011;3384;42.628;23.380;2023-08-01T12:34:28;17.73;;;16.80;;
6693;SDS011;3384;42.628;23.380;2023-08-01T12:36:57;20.27;;;16.90;;
6693;SDS011;3384;42.628;23.380;2023-08-01T12:39:23;19.50;;;17.83;;
6693;SDS011;3384;42.628;23.380;2023-08-01T12:41:51;18.17;;;17.50;;
6693;SDS011;3384;42.628;23.380;2023-08-01T12:44:18;17.23;;;16.30;;
6693;SDS011;3384;42.628;23.380;2023-08-01T12:46:46;17.13;;;16.13;;
6693;SDS011;3384;42.628;23.380;2023-08-01T12:49:12;17.77;;;16.57;;
6693;SDS011;3384;42.628;23.380;2023-08-01T12:51:39;16.60;;;16.00;;
6693;SDS011;3384;42.628;23.380;2023-08-01T12:54:08;17.27;;;16.67;;
6693;SDS011;3384;42.628;23.380;2023-08-01T12:56:34;18.40;;;17.50;;
6693;SDS011;3384;42.628;23.380;2023-08-01T12:59:01;17.80;;;17.10;;
6693;SDS011;3384;42.628;23.380;2023-08-01T13:01:29;17.87;;;16.83;;
6693;SDS011;3384;42.628;23.380;2023-08-01T13:03:55;19.00;;;17.50;;
6693;SDS011;3384;42.628;23.380;2023-08-01T13:06:22;16.93;;;16.23;;
6693;SDS011;3384;42.628;23.380;2023-08-01T13:08:49;17.00;;;16.07;;
6693;SDS011;3384;42.628;23.380;2023-08-01T13:11:17;18.17;;;16.73;;
6693;SDS011;3384;42.628;23.380;2023-08-01T13:13:44;17.37;;;16.57;;
6693;SDS011;3384;42.628;23.380;2023-08-01T13:16:11;17.70;;;16.60;;
6693;SDS011;3384;42.628;23.380;2023-08-01T13:18:38;17.30;;;16.50;;
6693;SDS011;3384;42.628;23.380;2023-08-01T13:21:08;20.10;;;18.57;;
6693;SDS011;3384;42.628;23.380;2023-08-01T13:23:36;16.97;;;16.27;;
6693;SDS011;3384;42.628;23.380;2023-08-01T13:26:02;17.17;;;15.87;;
6693;SDS011;3384;42.628;23.380;2023-08-01T13:28:31;17.70;;;16.33;;
6693;SDS011;3384;42.628;23.380;2023-08-01T13:30:57;18.60;;;17.57;;
6693;SDS011;3384;42.628;23.380;2023-08-01T13:33:24;17.37;;;16.60;;
6693;SDS011;3384;42.628;23.380;2023-08-01T13:35:51;16.43;;;15.60;;
6693;SDS011;3384;42.628;23.380;2023-08-01T13:38:19;16.50;;;15.80;;
6693;SDS011;3384;42.628;23.380;2023-08-01T13:40:45;16.43;;;15.77;;
6693;SDS011;3384;42.628;23.380;2023-08-01T13:43:12;17.53;;;16.63;;
6693;SDS011;3384;42.628;23.380;2023-08-01T13:45:40;17.23;;;16.00;;
6693;SDS011;3384;42.628;23.380;2023-08-01T13:48:07;15.50;;;14.90;;
6693;SDS011;3384;42.628;23.380;2023-08-01T13:50:34;16.07;;;15.47;;
6693;SDS011;3384;42.628;23.380;2023-08-01T13:53:01;15.87;;;15.03;;
6693;SDS011;3384;42.628;23.380;2023-08-01T13:55:28;15.83;;;15.17;;
6693;SDS011;3384;42.628;23.380;2023-08-01T13:57:55;16.97;;;15.90;;
6693;SDS011;3384;42.628;23.380;2023-08-01T14:00:22;16.47;;;15.60;;
6693;SDS011;3384;42.628;23.380;2023-08-01T14:02:50;16.87;;;14.97;;
6693;SDS011;3384;42.628;23.380;2023-08-01T14:05:17;15.67;;;14.60;;
6693;SDS011;3384;42.628;23.380;2023-08-01T14:07:44;15.87;;;15.27;;
6693;SDS011;3384;42.628;23.380;2023-08-01T14:10:11;15.23;;;14.73;;
6693;SDS011;3384;42.628;23.380;2023-08-01T14:12:39;15.50;;;14.83;;
6693;SDS011;3384;42.628;23.380;2023-08-01T14:15:06;15.10;;;14.50;;
6693;SDS011;3384;42.628;23.380;2023-08-01T14:17:34;14.50;;;14.00;;
6693;SDS011;3384;42.628;23.380;2023-08-01T14:20:02;16.10;;;15.07;;
6693;SDS011;3384;42.628;23.380;2023-08-01T14:22:30;15.13;;;14.20;;
6693;SDS011;3384;42.628;23.380;2023-08-01T14:24:57;15.87;;;14.83;;
6693;SDS011;3384;42.628;23.380;2023-08-01T14:27:24;15.53;;;14.40;;
6693;SDS011;3384;42.628;23.380;2023-08-01T14:29:50;16.23;;;15.40;;
6693;SDS011;3384;42.628;23.380;2023-08-01T14:32:17;15.90;;;14.57;;
6693;SDS011;3384;42.628;23.380;2023-08-01T14:34:45;14.73;;;14.30;;
6693;SDS011;3384;42.628;23.380;2023-08-01T14:37:13;14.43;;;13.63;;
6693;SDS011;3384;42.628;23.380;2023-08-01T14:39:40;14.67;;;14.17;;
6693;SDS011;3384;42.628;23.380;2023-08-01T14:42:06;15.80;;;14.70;;
6693;SDS011;3384;42.628;23.380;2023-08-01T14:44:33;14.63;;;14.13;;
6693;SDS011;3384;42.628;23.380;2023-08-01T14:47:00;15.20;;;14.37;;